Terminal Aerodrome Forecast
Issued by NWS

Home | Current Version | Previous Version | Text Only | Print | Product List | Glossary On
Versions: 1 2 3 4 5 6 7 8 9 10 11 12 13 14 15 16 17 18 19 20 21
000
FTUS43 KDVN 011700 RRA
TAFCID
TAF
KCID 011747Z 0118/0218 05020G30KT 1/2SM SN FZFG VV010
     FM012100 02022G32KT 1SM -SN BLSN OVC012
     FM020000 36020G28KT 3SM -SHSN BLSN OVC015
     FM020200 34015G24KT 5SM BLSN BKN020
     FM020500 33010KT P6SM SCT020=

USA.gov is the U.S. government's official web portal to all federal, state and local government web resources and services.